Time;durP1;ratioP1;P1;durP2;ratioP2;P2;SDS_P1;SDS_P2;PMS_P1;PMS_P2;Temp;Humidity;BMP_temperature;BMP_pressure;BME280_temperature;BME280_humidity;BME280_pressure;Samples;Min_cycle;Max_cycle;Signal;HPM_P1;HPM_P2
2023/04/05 00:00:37;;;;;;;4.57;2.67;;;1.40;99.90;;;;;;5035680;28;20249;-76
2023/04/05 00:03:03;;;;;;;4.33;2.90;;;1.40;99.90;;;;;;5031072;28;20189;-77
2023/04/05 00:05:33;;;;;;;6.37;2.83;;;1.30;99.90;;;;;;5032580;28;20215;-79
2023/04/05 00:08:00;;;;;;;6.40;3.30;;;1.30;99.90;;;;;;5037000;28;20199;-79
2023/04/05 00:10:27;;;;;;;6.37;2.60;;;1.30;99.90;;;;;;5035299;28;20506;-79
2023/04/05 00:12:52;;;;;;;5.37;2.80;;;1.30;99.90;;;;;;5038149;28;20215;-79
2023/04/05 00:15:18;;;;;;;6.20;2.93;;;1.20;99.90;;;;;;5037819;28;20169;-77
2023/04/05 00:17:47;;;;;;;4.73;2.83;;;1.20;99.90;;;;;;5036214;28;20248;-80
2023/04/05 00:20:12;;;;;;;5.43;2.70;;;1.20;99.90;;;;;;5037694;28;20663;-79
2023/04/05 00:22:39;;;;;;;5.47;3.20;;;1.10;99.90;;;;;;5037377;28;20246;-79
2023/04/05 00:25:05;;;;;;;6.33;3.13;;;1.10;99.90;;;;;;5037485;28;20245;-79
2023/04/05 00:27:31;;;;;;;5.33;4.13;;;1.10;99.90;;;;;;5037587;28;20200;-79
2023/04/05 00:29:56;;;;;;;6.23;3.73;;;1.10;99.90;;;;;;5035361;28;20172;-79
2023/04/05 00:32:22;;;;;;;4.40;2.90;;;1.10;99.90;;;;;;5036862;28;20200;-79
2023/04/05 00:34:48;;;;;;;6.13;3.33;;;1.10;99.90;;;;;;5037294;28;20183;-78
2023/04/05 00:37:14;;;;;;;3.97;2.87;;;1.10;99.90;;;;;;5037110;28;20188;-79
2023/04/05 00:39:40;;;;;;;8.67;3.60;;;1.00;99.90;;;;;;5038341;28;20265;-80
2023/04/05 00:42:05;;;;;;;4.80;3.37;;;1.00;99.90;;;;;;5037414;28;20223;-79
2023/04/05 00:44:33;;;;;;;6.50;3.20;;;1.00;99.90;;;;;;5036141;28;20172;-79
2023/04/05 00:47:03;;;;;;;7.30;3.50;;;1.00;99.90;;;;;;5036323;28;20172;-79
2023/04/05 00:49:30;;;;;;;4.60;3.33;;;0.90;99.90;;;;;;5038503;28;20177;-79
2023/04/05 00:51:56;;;;;;;8.03;3.63;;;0.90;99.90;;;;;;5036348;28;20744;-80
2023/04/05 00:54:28;;;;;;;4.40;2.87;;;0.90;99.90;;;;;;5037707;28;20250;-80
2023/04/05 00:56:55;;;;;;;5.20;3.00;;;0.90;99.90;;;;;;5035942;28;20176;-80
2023/04/05 00:59:21;;;;;;;5.60;3.50;;;0.90;99.90;;;;;;5036168;28;20180;-79
2023/04/05 01:01:54;;;;;;;6.33;3.73;;;0.90;99.90;;;;;;5040577;28;20554;-79
2023/04/05 01:04:25;;;;;;;8.27;3.43;;;0.80;99.90;;;;;;5042009;28;20180;-80
2023/04/05 01:07:06;;;;;;;8.03;3.30;;;0.80;99.90;;;;;;5042106;28;20648;-79
2023/04/05 01:09:57;;;;;;;6.43;3.97;;;0.80;99.90;;;;;;5040097;28;20168;-79
2023/04/05 01:12:27;;;;;;;6.03;3.63;;;0.80;99.90;;;;;;5040310;28;20208;-79
2023/04/05 01:14:53;;;;;;;5.30;3.30;;;0.80;99.90;;;;;;5041204;28;20196;-78
2023/04/05 01:17:22;;;;;;;4.23;3.00;;;0.80;99.90;;;;;;5041808;28;20255;-79
2023/04/05 01:19:58;;;;;;;6.83;3.57;;;0.80;99.90;;;;;;5041540;28;20264;-78
2023/04/05 01:22:52;;;;;;;9.37;3.57;;;0.80;99.90;;;;;;5041892;28;20219;-79
2023/04/05 01:25:40;;;;;;;10.47;3.40;;;0.80;99.90;;;;;;5041358;28;20169;-79
2023/04/05 01:28:43;;;;;;;6.47;3.20;;;0.80;99.90;;;;;;5044747;28;20235;-79
2023/04/05 01:31:40;;;;;;;5.93;3.07;;;0.80;99.90;;;;;;5044582;28;20160;-79
2023/04/05 01:34:35;;;;;;;5.97;3.40;;;0.70;99.90;;;;;;5038652;28;20678;-80
2023/04/05 01:37:05;;;;;;;5.73;3.83;;;0.70;99.90;;;;;;5039631;28;20164;-79
2023/04/05 01:39:33;;;;;;;7.70;3.60;;;0.70;99.90;;;;;;5038324;28;20522;-79
2023/04/05 01:42:00;;;;;;;7.23;3.50;;;0.70;99.90;;;;;;5038599;28;20216;-80
2023/04/05 01:44:26;;;;;;;9.93;3.43;;;0.70;99.90;;;;;;5038981;28;20585;-80
2023/04/05 01:46:51;;;;;;;6.90;4.10;;;0.60;99.90;;;;;;5041089;28;20168;-79
2023/04/05 01:49:17;;;;;;;7.40;3.57;;;0.60;99.90;;;;;;5038774;28;20556;-79
2023/04/05 01:51:42;;;;;;;8.27;3.90;;;0.60;99.90;;;;;;5038843;28;20180;-79
2023/04/05 01:54:08;;;;;;;6.47;4.27;;;0.60;99.90;;;;;;5038630;28;20172;-79
2023/04/05 01:56:34;;;;;;;4.97;3.47;;;0.60;99.90;;;;;;5038989;28;20176;-78
2023/04/05 01:59:00;;;;;;;8.00;3.70;;;0.60;99.90;;;;;;5040529;28;20168;-79
2023/04/05 02:01:25;;;;;;;7.13;3.23;;;0.50;99.90;;;;;;5038500;28;20212;-81
2023/04/05 02:03:51;;;;;;;5.17;4.03;;;0.50;99.90;;;;;;5039811;28;20168;-79
2023/04/05 02:06:16;;;;;;;4.90;3.57;;;0.50;99.90;;;;;;5039271;28;20176;-79
2023/04/05 02:08:42;;;;;;;5.70;3.50;;;0.50;99.90;;;;;;5037865;28;20613;-79
2023/04/05 02:11:07;;;;;;;5.43;3.67;;;0.50;99.90;;;;;;5037766;28;20202;-79
2023/04/05 02:13:33;;;;;;;5.53;3.30;;;0.40;99.90;;;;;;5038129;28;20196;-78
2023/04/05 02:15:59;;;;;;;7.30;3.70;;;0.40;99.90;;;;;;5037471;28;20265;-79
2023/04/05 02:18:28;;;;;;;5.63;3.80;;;0.40;99.90;;;;;;5039000;28;20238;-79
2023/04/05 02:21:01;;;;;;;5.83;3.60;;;0.40;99.90;;;;;;5038966;28;20230;-79
2023/04/05 02:23:29;;;;;;;6.07;3.93;;;0.40;99.90;;;;;;5038806;28;20625;-79
2023/04/05 02:25:55;;;;;;;5.57;3.43;;;0.40;99.90;;;;;;5038027;28;20176;-79
2023/04/05 02:28:20;;;;;;;7.37;3.73;;;0.30;99.90;;;;;;5038788;28;20176;-79
2023/04/05 02:30:46;;;;;;;11.30;3.50;;;0.30;99.90;;;;;;5038090;28;20176;-78
2023/04/05 02:33:11;;;;;;;7.50;3.93;;;0.30;99.90;;;;;;5036734;28;20253;-79
2023/04/05 02:35:37;;;;;;;6.67;4.17;;;0.30;99.90;;;;;;5037659;28;20283;-79
2023/04/05 02:38:03;;;;;;;8.00;3.83;;;0.30;99.90;;;;;;5038683;28;20192;-80
2023/04/05 02:40:30;;;;;;;8.40;4.27;;;0.30;99.90;;;;;;5037101;28;20285;-79
2023/04/05 02:42:56;;;;;;;7.17;4.20;;;0.30;99.90;;;;;;5037089;28;20208;-79
2023/04/05 02:45:21;;;;;;;6.27;4.13;;;0.30;99.90;;;;;;5038372;28;20172;-79
2023/04/05 02:47:47;;;;;;;8.50;3.60;;;0.20;99.90;;;;;;5037597;28;20175;-79
2023/04/05 02:50:13;;;;;;;8.00;3.77;;;0.30;99.90;;;;;;5036596;28;20183;-79
2023/04/05 02:52:39;;;;;;;6.53;4.10;;;0.20;99.90;;;;;;5038202;28;20271;-78
2023/04/05 02:55:05;;;;;;;7.13;4.00;;;0.20;99.90;;;;;;5036390;28;20199;-78
2023/04/05 02:57:31;;;;;;;5.37;3.40;;;0.20;99.90;;;;;;5035805;28;20240;-79
2023/04/05 02:59:57;;;;;;;6.47;3.93;;;0.20;99.90;;;;;;5036328;28;20212;-79
2023/04/05 03:02:22;;;;;;;7.07;3.50;;;0.20;99.90;;;;;;5038018;28;20647;-79
2023/04/05 03:04:51;;;;;;;8.97;4.30;;;0.20;99.90;;;;;;5037320;28;20287;-79
2023/04/05 03:07:17;;;;;;;6.60;4.03;;;0.20;99.90;;;;;;5037737;28;20282;-80
2023/04/05 03:09:45;;;;;;;9.73;4.23;;;0.10;99.90;;;;;;5038138;28;20183;-79
2023/04/05 03:12:10;;;;;;;7.27;4.27;;;0.20;99.90;;;;;;5037340;28;20561;-79
2023/04/05 03:14:37;;;;;;;11.10;4.17;;;0.10;99.90;;;;;;5036356;28;20180;-79
2023/04/05 03:17:02;;;;;;;6.13;3.53;;;0.10;99.90;;;;;;5036817;28;20283;-79
2023/04/05 03:19:28;;;;;;;6.47;4.30;;;0.10;99.90;;;;;;5037848;28;20656;-78
2023/04/05 03:21:54;;;;;;;7.93;4.60;;;0.10;99.90;;;;;;5036951;28;20212;-79
2023/04/05 03:24:20;;;;;;;6.00;4.60;;;0.00;99.90;;;;;;5035543;28;20187;-78
2023/04/05 03:26:47;;;;;;;8.70;4.70;;;0.00;99.90;;;;;;5037663;28;20176;-78
2023/04/05 03:29:12;;;;;;;6.30;3.70;;;0.00;99.90;;;;;;5036025;28;20187;-78
2023/04/05 03:31:38;;;;;;;8.87;4.23;;;-0.10;99.90;;;;;;5036349;28;20574;-78
2023/04/05 03:34:04;;;;;;;9.93;4.73;;;-0.10;99.90;;;;;;5035665;28;20189;-79
2023/04/05 03:36:40;;;;;;;8.47;4.53;;;-0.10;99.90;;;;;;5035412;28;20180;-78
2023/04/05 03:39:07;;;;;;;7.00;4.50;;;-0.10;99.90;;;;;;5035571;28;20176;-79
2023/04/05 03:41:33;;;;;;;8.83;4.77;;;-0.20;99.90;;;;;;5036087;28;20200;-78
2023/04/05 03:43:58;;;;;;;10.07;5.03;;;-0.20;99.90;;;;;;5035073;28;20933;-78
2023/04/05 03:46:24;;;;;;;8.60;4.37;;;-0.20;99.90;;;;;;5036431;28;20231;-78
2023/04/05 03:48:49;;;;;;;9.97;5.20;;;-0.20;99.90;;;;;;5036578;28;20628;-78
2023/04/05 03:51:15;;;;;;;6.43;4.30;;;-0.20;99.90;;;;;;5035353;28;20183;-77
2023/04/05 03:53:41;;;;;;;7.23;4.50;;;-0.20;99.90;;;;;;5034515;28;20258;-78
2023/04/05 03:56:06;;;;;;;5.93;4.07;;;-0.20;99.90;;;;;;5036576;28;20546;-78
2023/04/05 03:58:32;;;;;;;6.47;4.30;;;-0.20;99.90;;;;;;5036805;28;20177;-79
2023/04/05 04:00:57;;;;;;;7.63;4.37;;;-0.20;99.90;;;;;;5034784;28;20200;-78
2023/04/05 04:03:24;;;;;;;7.07;4.23;;;-0.30;99.90;;;;;;5036346;28;20266;-78
2023/04/05 04:05:50;;;;;;;8.17;4.33;;;-0.20;99.90;;;;;;5036329;28;20186;-78
2023/04/05 04:08:16;;;;;;;6.70;4.97;;;-0.30;99.90;;;;;;5035273;28;20169;-78
2023/04/05 04:10:41;;;;;;;8.57;4.40;;;-0.20;99.90;;;;;;5036599;28;20180;-78
2023/04/05 04:13:07;;;;;;;8.50;4.80;;;-0.30;99.90;;;;;;5034419;28;20195;-79
2023/04/05 04:15:32;;;;;;;6.57;4.63;;;-0.30;99.90;;;;;;5033971;28;20202;-78
2023/04/05 04:17:58;;;;;;;6.67;4.40;;;-0.30;99.90;;;;;;5036013;28;20694;-78
2023/04/05 04:20:24;;;;;;;8.57;4.57;;;-0.30;99.90;;;;;;5036283;28;20176;-78
2023/04/05 04:22:52;;;;;;;6.47;4.47;;;-0.30;99.90;;;;;;5035829;28;20199;-79
2023/04/05 04:25:19;;;;;;;6.93;4.97;;;-0.40;99.90;;;;;;5036687;28;20191;-78
2023/04/05 04:27:45;;;;;;;8.90;5.17;;;-0.40;99.90;;;;;;5036107;28;20179;-79
2023/04/05 04:30:15;;;;;;;7.10;4.83;;;-0.40;99.90;;;;;;5035284;28;20182;-78
2023/04/05 04:32:51;;;;;;;6.70;4.67;;;-0.40;99.90;;;;;;5034352;28;20699;-78
2023/04/05 04:35:19;;;;;;;7.50;4.97;;;-0.50;99.90;;;;;;5036735;28;20157;-77
2023/04/05 04:37:46;;;;;;;9.97;4.23;;;-0.50;99.90;;;;;;5038637;28;20180;-78
2023/04/05 04:40:18;;;;;;;11.00;4.77;;;-0.50;99.90;;;;;;5040645;28;20195;-78
2023/04/05 04:42:47;;;;;;;14.43;5.13;;;-0.50;99.90;;;;;;5039873;28;20188;-78
2023/04/05 04:45:17;;;;;;;6.10;4.13;;;-0.50;99.90;;;;;;5040299;28;20548;-78
2023/04/05 04:47:47;;;;;;;7.93;4.07;;;-0.50;99.90;;;;;;5040854;28;20172;-79
2023/04/05 04:50:14;;;;;;;11.27;4.27;;;-0.50;99.90;;;;;;5040612;28;20240;-78
2023/04/05 04:52:41;;;;;;;8.50;4.40;;;-0.50;99.90;;;;;;5039757;28;20188;-78
2023/04/05 04:55:13;;;;;;;7.90;4.67;;;-0.50;99.90;;;;;;5039835;28;20696;-78
2023/04/05 04:57:39;;;;;;;7.40;3.97;;;-0.50;99.90;;;;;;5041193;28;20525;-78
2023/04/05 05:00:11;;;;;;;13.30;4.47;;;-0.50;99.90;;;;;;5041036;28;20213;-78
2023/04/05 05:02:36;;;;;;;9.20;4.37;;;-0.50;99.90;;;;;;5041072;28;20283;-79
2023/04/05 05:05:03;;;;;;;7.77;4.53;;;-0.50;99.90;;;;;;5039359;28;20214;-79
2023/04/05 05:07:28;;;;;;;8.47;4.80;;;-0.50;99.90;;;;;;5042107;28;20168;-79
2023/04/05 05:09:54;;;;;;;8.30;4.50;;;-0.50;99.90;;;;;;5040345;28;20196;-77
2023/04/05 05:12:20;;;;;;;8.97;4.63;;;-0.60;99.90;;;;;;5039475;28;20212;-78
2023/04/05 05:14:46;;;;;;;6.17;4.33;;;-0.50;99.90;;;;;;5039956;28;20268;-79
2023/04/05 05:17:12;;;;;;;5.70;4.30;;;-0.60;99.90;;;;;;5038977;28;20176;-78
2023/04/05 05:19:37;;;;;;;8.27;4.53;;;-0.60;99.90;;;;;;5038743;28;20203;-78
2023/04/05 05:22:03;;;;;;;8.77;4.50;;;-0.60;99.90;;;;;;5038288;28;20319;-77
2023/04/05 05:24:28;;;;;;;10.03;5.43;;;-0.60;99.90;;;;;;5036688;28;20211;-78
2023/04/05 05:26:54;;;;;;;7.43;4.53;;;-0.60;99.90;;;;;;5035389;28;20176;-77
2023/04/05 05:29:19;;;;;;;7.80;4.67;;;-0.60;99.90;;;;;;5035337;28;20164;-77
2023/04/05 05:31:45;;;;;;;8.93;5.27;;;-0.60;99.90;;;;;;5035605;28;20196;-77
2023/04/05 05:34:10;;;;;;;6.57;4.97;;;-0.60;99.90;;;;;;5033882;28;20186;-77
2023/04/05 05:36:36;;;;;;;8.83;4.90;;;-0.60;99.90;;;;;;5035071;28;20645;-77
2023/04/05 05:39:04;;;;;;;8.27;5.13;;;-0.60;99.90;;;;;;5036304;28;20226;-77
2023/04/05 05:41:30;;;;;;;7.33;4.23;;;-0.60;99.90;;;;;;5036291;28;20192;-77
2023/04/05 05:43:55;;;;;;;12.23;5.23;;;-0.60;99.90;;;;;;5034934;28;20652;-77
2023/04/05 05:46:21;;;;;;;7.50;4.70;;;-0.60;99.90;;;;;;5035989;28;20222;-77
2023/04/05 05:48:46;;;;;;;8.47;4.57;;;-0.60;99.90;;;;;;5034286;28;20177;-77
2023/04/05 05:51:12;;;;;;;10.00;4.90;;;-0.50;99.90;;;;;;5034945;28;20177;-77
2023/04/05 05:53:38;;;;;;;8.83;5.10;;;-0.50;99.90;;;;;;5035805;28;20195;-77
2023/04/05 05:56:05;;;;;;;11.27;4.77;;;-0.50;99.90;;;;;;5036166;28;20230;-77
2023/04/05 05:58:31;;;;;;;10.97;5.07;;;-0.50;99.90;;;;;;5035657;28;20172;-78
2023/04/05 06:00:57;;;;;;;8.47;5.27;;;-0.50;99.90;;;;;;5036640;28;20203;-77
2023/04/05 06:03:24;;;;;;;8.97;5.70;;;-0.40;99.90;;;;;;5034606;28;20192;-77
2023/04/05 06:05:55;;;;;;;7.40;5.13;;;-0.40;99.90;;;;;;5036149;28;20659;-77
2023/04/05 06:08:20;;;;;;;10.03;5.13;;;-0.40;99.90;;;;;;5034875;28;20169;-78
2023/04/05 06:10:46;;;;;;;11.63;5.80;;;-0.30;99.90;;;;;;5036082;28;20187;-77
2023/04/05 06:13:12;;;;;;;10.03;4.70;;;-0.30;99.90;;;;;;5035637;28;20294;-77
2023/04/05 06:15:37;;;;;;;9.03;5.27;;;-0.30;99.90;;;;;;5034180;28;20250;-77
2023/04/05 06:18:03;;;;;;;11.00;5.03;;;-0.30;99.90;;;;;;5034631;28;20670;-77
2023/04/05 06:20:28;;;;;;;7.90;5.10;;;-0.20;99.90;;;;;;5034413;28;20246;-77
2023/04/05 06:22:54;;;;;;;9.93;4.77;;;-0.20;99.90;;;;;;5035584;28;20188;-77
2023/04/05 06:25:20;;;;;;;8.43;5.40;;;-0.20;99.90;;;;;;5035242;28;20173;-77
2023/04/05 06:27:45;;;;;;;8.53;5.10;;;-0.10;99.90;;;;;;5035537;28;20179;-78
2023/04/05 06:30:11;;;;;;;11.27;5.13;;;-0.10;99.90;;;;;;5035247;28;20600;-77
2023/04/05 06:32:37;;;;;;;12.13;5.60;;;0.00;99.90;;;;;;5035580;28;20258;-77
2023/04/05 06:35:03;;;;;;;8.20;4.90;;;0.00;99.90;;;;;;5035395;28;20176;-76
2023/04/05 06:37:29;;;;;;;9.67;5.20;;;0.10;99.90;;;;;;5034230;28;20200;-77
2023/04/05 06:39:55;;;;;;;7.83;6.10;;;0.20;99.90;;;;;;5034822;28;20196;-77
2023/04/05 06:42:20;;;;;;;10.40;5.00;;;0.30;99.90;;;;;;5035480;28;20770;-77
2023/04/05 06:44:46;;;;;;;8.03;4.40;;;0.40;99.90;;;;;;5035080;28;20204;-77
2023/04/05 06:47:12;;;;;;;14.57;5.57;;;0.40;99.90;;;;;;5035599;28;20168;-77
2023/04/05 06:49:37;;;;;;;11.57;4.73;;;0.50;99.90;;;;;;5035593;28;20196;-77
2023/04/05 06:52:05;;;;;;;8.80;5.20;;;0.60;99.90;;;;;;5035741;28;20624;-77
2023/04/05 06:54:36;;;;;;;7.20;4.83;;;0.70;99.90;;;;;;5034029;28;20652;-77
2023/04/05 06:57:02;;;;;;;9.83;5.57;;;0.70;99.90;;;;;;5036127;28;20181;-77
2023/04/05 06:59:28;;;;;;;8.77;5.60;;;0.80;99.90;;;;;;5035251;28;20663;-77
2023/04/05 07:01:54;;;;;;;10.03;5.37;;;0.90;99.90;;;;;;5036137;28;20290;-77
2023/04/05 07:04:20;;;;;;;10.47;5.87;;;1.00;99.90;;;;;;5033579;28;20176;-77
2023/04/05 07:06:46;;;;;;;7.77;6.00;;;1.10;99.90;;;;;;5035019;28;20164;-77
2023/04/05 07:09:11;;;;;;;10.90;6.07;;;1.10;99.90;;;;;;5033896;28;20651;-77
2023/04/05 07:11:38;;;;;;;8.47;5.40;;;1.20;99.90;;;;;;5035048;28;20195;-77
2023/04/05 07:14:04;;;;;;;9.97;6.33;;;1.30;99.90;;;;;;5033362;28;20263;-77
2023/04/05 07:16:30;;;;;;;12.63;6.73;;;1.50;99.90;;;;;;5033251;28;20250;-77
2023/04/05 07:18:56;;;;;;;9.00;6.33;;;1.60;99.90;;;;;;5033593;28;20259;-77
2023/04/05 07:21:22;;;;;;;9.47;6.27;;;1.70;99.90;;;;;;5032517;28;20627;-78
2023/04/05 07:23:48;;;;;;;9.30;6.03;;;1.80;99.90;;;;;;5034070;28;20267;-77
2023/04/05 07:26:13;;;;;;;7.43;5.93;;;1.90;99.90;;;;;;5033882;28;20552;-77
2023/04/05 07:28:39;;;;;;;8.53;5.10;;;2.00;99.90;;;;;;5032075;28;20230;-77
2023/04/05 07:31:05;;;;;;;7.67;4.60;;;2.10;99.90;;;;;;5032359;28;20559;-77
2023/04/05 07:33:31;;;;;;;8.90;5.30;;;2.20;99.90;;;;;;5031997;28;20223;-78
2023/04/05 07:35:57;;;;;;;8.67;4.70;;;2.30;99.90;;;;;;5033431;28;20591;-77
2023/04/05 07:38:23;;;;;;;8.57;4.77;;;2.50;99.90;;;;;;5033398;28;20230;-77
2023/04/05 07:40:49;;;;;;;5.47;4.43;;;2.60;99.90;;;;;;5033303;28;20200;-77
2023/04/05 07:43:15;;;;;;;6.30;4.60;;;2.70;99.90;;;;;;5033597;28;20194;-77
2023/04/05 07:45:41;;;;;;;6.67;4.03;;;2.80;99.90;;;;;;5031809;28;20179;-77
2023/04/05 07:48:06;;;;;;;9.80;4.73;;;2.90;99.90;;;;;;5032014;28;20621;-77
2023/04/05 07:50:33;;;;;;;8.83;3.50;;;3.00;99.90;;;;;;5033189;28;20214;-77
2023/04/05 07:52:59;;;;;;;6.83;4.20;;;3.10;99.90;;;;;;5032811;28;20235;-77
2023/04/05 07:55:26;;;;;;;6.17;3.97;;;3.20;99.90;;;;;;5034126;28;20176;-77
2023/04/05 07:57:52;;;;;;;5.77;3.77;;;3.30;99.90;;;;;;5034792;28;20168;-77
2023/04/05 08:00:19;;;;;;;7.10;4.00;;;3.40;99.90;;;;;;5035345;28;20550;-76
2023/04/05 08:02:44;;;;;;;5.40;4.13;;;3.50;99.90;;;;;;5035258;28;20200;-77
2023/04/05 08:05:10;;;;;;;5.00;3.70;;;3.60;99.90;;;;;;5033489;28;20181;-77
2023/04/05 08:07:36;;;;;;;6.50;3.53;;;3.70;99.90;;;;;;5036165;28;20165;-78
2023/04/05 08:10:02;;;;;;;8.13;3.93;;;3.80;99.90;;;;;;5035416;28;20175;-78
2023/04/05 08:12:29;;;;;;;7.73;3.47;;;3.80;99.90;;;;;;5034006;28;20212;-76
2023/04/05 08:14:55;;;;;;;5.17;3.77;;;4.00;99.90;;;;;;5034184;28;20574;-78
2023/04/05 08:17:20;;;;;;;6.47;4.30;;;4.10;99.90;;;;;;5035564;28;20204;-78
2023/04/05 08:19:46;;;;;;;5.10;3.50;;;4.20;99.90;;;;;;5035841;28;20682;-78
2023/04/05 08:22:11;;;;;;;5.60;3.80;;;4.20;99.90;;;;;;5034039;28;20687;-77
2023/04/05 08:24:37;;;;;;;9.47;3.57;;;4.30;99.90;;;;;;5036575;28;20227;-78
2023/04/05 08:27:02;;;;;;;7.83;4.00;;;4.30;99.90;;;;;;5032993;28;20168;-78
2023/04/05 08:29:28;;;;;;;7.47;3.90;;;4.40;99.90;;;;;;5031854;28;20172;-78
2023/04/05 08:31:57;;;;;;;5.77;3.10;;;4.50;99.90;;;;;;5033982;28;20250;-81
2023/04/05 08:34:22;;;;;;;6.97;3.80;;;4.60;99.90;;;;;;5035681;28;20172;-81
2023/04/05 08:36:48;;;;;;;5.83;3.30;;;4.60;99.90;;;;;;5035963;28;20616;-82
2023/04/05 08:39:14;;;;;;;4.23;3.43;;;4.70;99.90;;;;;;5035014;28;20701;-81
2023/04/05 08:41:49;;;;;;;9.90;3.97;;;4.90;99.90;;;;;;5034141;28;20701;-81
2023/04/05 08:44:15;;;;;;;5.93;4.00;;;5.00;99.90;;;;;;5034331;28;20178;-81
2023/04/05 08:46:42;;;;;;;5.60;3.47;;;5.20;99.90;;;;;;5035958;28;20173;-81
2023/04/05 08:49:10;;;;;;;6.33;3.57;;;5.30;99.90;;;;;;5034160;28;20180;-81
2023/04/05 08:51:39;;;;;;;8.27;4.40;;;5.30;99.90;;;;;;5033763;28;20259;-81
2023/04/05 08:54:05;;;;;;;8.37;4.17;;;5.60;99.90;;;;;;5036801;28;20176;-81
2023/04/05 08:56:33;;;;;;;4.70;3.47;;;5.80;99.90;;;;;;5038341;28;20188;-82
2023/04/05 08:59:04;;;;;;;7.20;3.47;;;6.10;99.90;;;;;;5038364;28;20199;-81
2023/04/05 09:01:32;;;;;;;6.23;3.97;;;6.20;99.90;;;;;;5037426;28;20265;-82
2023/04/05 09:04:00;;;;;;;5.97;3.70;;;6.20;99.90;;;;;;5038196;28;20183;-81
2023/04/05 09:06:27;;;;;;;4.10;3.63;;;6.30;99.90;;;;;;5037371;28;20263;-82
2023/04/05 09:08:56;;;;;;;8.90;3.80;;;6.40;99.90;;;;;;5039033;28;20191;-80
2023/04/05 09:11:22;;;;;;;7.33;3.87;;;6.40;99.90;;;;;;5039505;28;20204;-81
2023/04/05 09:13:48;;;;;;;4.90;3.33;;;6.40;99.90;;;;;;5038431;28;20200;-80
2023/04/05 09:16:15;;;;;;;6.90;3.50;;;6.60;99.90;;;;;;5038400;28;20203;-81
2023/04/05 09:18:41;;;;;;;4.53;3.43;;;6.60;99.90;;;;;;5037321;28;20172;-81
2023/04/05 09:21:08;;;;;;;6.20;3.30;;;6.60;99.90;;;;;;5037213;28;20207;-81
2023/04/05 09:23:34;;;;;;;5.93;3.50;;;6.60;99.90;;;;;;5040712;28;20214;-81
2023/04/05 09:25:59;;;;;;;7.77;3.43;;;6.70;99.90;;;;;;5042459;28;20188;-82
2023/04/05 09:28:43;;;;;;;6.87;3.70;;;6.80;99.90;;;;;;5039916;28;20176;-81
2023/04/05 09:31:09;;;;;;;5.73;3.37;;;6.80;99.90;;;;;;5039925;28;20542;-82
2023/04/05 09:33:35;;;;;;;4.20;3.33;;;6.80;99.90;;;;;;5038471;28;20188;-82
2023/04/05 09:36:01;;;;;;;7.43;3.80;;;6.80;99.90;;;;;;5039529;28;20187;-82
2023/04/05 09:38:44;;;;;;;7.80;3.87;;;6.90;99.90;;;;;;5041784;28;20559;-82
2023/04/05 09:41:09;;;;;;;6.33;4.10;;;7.00;99.90;;;;;;5041780;28;20679;-81
2023/04/05 09:43:37;;;;;;;4.97;3.57;;;7.10;99.90;;;;;;5041398;28;20255;-81
2023/04/05 09:46:03;;;;;;;5.73;3.43;;;7.30;99.90;;;;;;5040801;28;20172;-81
2023/04/05 09:48:52;;;;;;;5.40;3.47;;;7.40;99.90;;;;;;5038491;28;20176;-82
2023/04/05 09:51:18;;;;;;;5.80;3.43;;;7.60;99.90;;;;;;5039808;28;20171;-82
2023/04/05 09:54:06;;;;;;;5.33;3.50;;;7.50;99.90;;;;;;5039265;28;20206;-82
2023/04/05 09:56:34;;;;;;;4.67;3.37;;;7.70;99.90;;;;;;5039381;28;20206;-82
2023/04/05 09:59:01;;;;;;;5.37;3.60;;;7.80;99.90;;;;;;5039280;28;20184;-82
2023/04/05 10:01:29;;;;;;;5.30;2.77;;;7.80;99.90;;;;;;5041174;28;20196;-83
2023/04/05 10:03:57;;;;;;;4.43;2.60;;;7.80;99.90;;;;;;5040409;28;20541;-82
2023/04/05 10:06:23;;;;;;;5.27;3.27;;;7.90;99.90;;;;;;5038558;28;20177;-82
2023/04/05 10:08:50;;;;;;;5.47;3.20;;;7.90;99.90;;;;;;5038322;28;20180;-82
2023/04/05 10:11:20;;;;;;;4.17;3.17;;;8.00;99.90;;;;;;5038863;28;20199;-81
2023/04/05 10:13:48;;;;;;;4.87;3.50;;;8.10;99.90;;;;;;5038461;28;20330;-82
2023/04/05 10:16:19;;;;;;;4.90;3.33;;;8.00;99.90;;;;;;5039358;28;20251;-81
2023/04/05 10:18:50;;;;;;;8.43;3.90;;;8.10;99.90;;;;;;5035952;28;20161;-82
2023/04/05 10:21:20;;;;;;;5.03;3.57;;;8.20;99.90;;;;;;5037018;28;20572;-81
2023/04/05 10:24:08;;;;;;;7.97;3.27;;;8.20;99.90;;;;;;5039959;28;20551;-81
2023/04/05 10:26:42;;;;;;;7.07;4.10;;;8.30;99.90;;;;;;5038368;28;20176;-82
2023/04/05 10:29:16;;;;;;;4.90;3.60;;;8.30;99.90;;;;;;5040431;28;20175;-82
2023/04/05 10:31:50;;;;;;;4.03;3.33;;;8.40;99.90;;;;;;5039383;28;20172;-83
2023/04/05 10:34:35;;;;;;;6.93;3.53;;;8.50;99.90;;;;;;5040455;28;20636;-81
2023/04/05 10:37:02;;;;;;;5.73;3.47;;;8.50;99.90;;;;;;5037779;28;20168;-82
2023/04/05 10:39:28;;;;;;;5.40;3.50;;;8.50;99.90;;;;;;5040697;28;20623;-82
2023/04/05 10:42:12;;;;;;;6.67;4.20;;;8.70;99.90;;;;;;5038304;28;20230;-81
2023/04/05 10:44:39;;;;;;;5.53;3.87;;;8.70;99.90;;;;;;5037036;28;20247;-82
2023/04/05 10:47:10;;;;;;;7.33;3.97;;;8.80;99.90;;;;;;5037289;28;20168;-82
2023/04/05 10:49:42;;;;;;;5.80;3.93;;;8.80;99.90;;;;;;5039641;28;20149;-82
2023/04/05 10:52:08;;;;;;;6.17;3.90;;;8.80;99.90;;;;;;5037911;28;20203;-82
2023/04/05 10:54:35;;;;;;;6.73;4.00;;;8.80;99.90;;;;;;5040405;28;20172;-81
2023/04/05 10:57:06;;;;;;;9.13;4.03;;;8.80;99.90;;;;;;5040154;28;20188;-82
2023/04/05 10:59:33;;;;;;;8.43;3.90;;;8.90;99.90;;;;;;5038903;28;20175;-81
2023/04/05 11:01:59;;;;;;;5.97;3.90;;;8.90;99.90;;;;;;5037861;28;20200;-82
2023/04/05 11:04:25;;;;;;;7.20;3.70;;;8.90;99.90;;;;;;5036957;28;20175;-81
2023/04/05 11:07:14;;;;;;;6.10;3.90;;;9.00;99.90;;;;;;5038177;28;20255;-82
2023/04/05 11:10:03;;;;;;;5.13;3.53;;;9.10;99.90;;;;;;5038632;28;20176;-83
2023/04/05 11:12:47;;;;;;;5.93;4.37;;;9.00;99.90;;;;;;5037948;28;20573;-82
2023/04/05 11:15:27;;;;;;;4.77;3.77;;;9.10;99.90;;;;;;5036557;28;20203;-83
2023/04/05 11:18:08;;;;;;;5.30;4.20;;;9.20;99.90;;;;;;5037262;28;20636;-82
2023/04/05 11:20:51;;;;;;;7.77;4.57;;;9.20;99.90;;;;;;5036443;28;20632;-82
2023/04/05 11:23:18;;;;;;;6.20;4.00;;;9.30;99.90;;;;;;5038079;28;20242;-82
2023/04/05 11:26:02;;;;;;;6.07;4.10;;;9.20;99.90;;;;;;5037819;28;20161;-83
2023/04/05 11:28:39;;;;;;;8.63;4.33;;;9.40;99.90;;;;;;5037559;28;20164;-83
2023/04/05 11:31:17;;;;;;;9.30;4.47;;;9.50;99.90;;;;;;5037243;28;20171;-83
2023/04/05 11:33:55;;;;;;;7.33;4.30;;;9.50;99.90;;;;;;5036805;28;20195;-82
2023/04/05 11:36:32;;;;;;;6.80;4.03;;;9.40;99.90;;;;;;5035794;28;20183;-81
2023/04/05 11:39:21;;;;;;;10.77;4.50;;;9.50;99.90;;;;;;5037674;28;20167;-83
2023/04/05 11:42:09;;;;;;;10.10;5.30;;;9.60;99.90;;;;;;5036617;28;20269;-82
2023/04/05 11:44:50;;;;;;;8.27;5.13;;;9.70;99.90;;;;;;5035484;28;20175;-82
2023/04/05 11:47:17;;;;;;;6.37;4.53;;;9.70;99.90;;;;;;5035271;28;20564;-83
2023/04/05 11:49:47;;;;;;;7.43;5.33;;;9.80;99.90;;;;;;5037299;28;20172;-82
2023/04/05 11:52:15;;;;;;;7.30;5.30;;;9.80;99.90;;;;;;5035709;28;20192;-83
2023/04/05 11:54:45;;;;;;;7.13;4.90;;;9.90;99.90;;;;;;5036894;28;20168;-82
2023/04/05 11:57:21;;;;;;;7.27;5.17;;;9.90;99.90;;;;;;5036355;28;20176;-82
2023/04/05 11:59:50;;;;;;;7.97;5.53;;;10.10;99.90;;;;;;5036582;28;20175;-83
2023/04/05 12:02:16;;;;;;;10.30;5.70;;;10.10;99.90;;;;;;5036439;28;20200;-83
2023/04/05 12:04:41;;;;;;;7.73;5.50;;;10.00;99.90;;;;;;5037517;28;20168;-82
2023/04/05 12:07:18;;;;;;;8.93;5.80;;;9.90;99.90;;;;;;5035837;28;20195;-83
2023/04/05 12:09:56;;;;;;;7.87;5.10;;;9.90;99.90;;;;;;5036238;28;20259;-83
2023/04/05 12:12:22;;;;;;;8.67;5.50;;;10.00;99.90;;;;;;5036342;28;20203;-82
2023/04/05 12:14:48;;;;;;;13.10;5.87;;;10.00;99.90;;;;;;5036484;28;20621;-82
2023/04/05 12:17:13;;;;;;;10.07;5.90;;;10.00;99.90;;;;;;5036003;28;20164;-81
2023/04/05 12:19:39;;;;;;;10.07;5.30;;;10.00;99.90;;;;;;5036303;28;20183;-83
2023/04/05 12:22:05;;;;;;;8.27;5.00;;;9.90;99.90;;;;;;5037477;28;20204;-83
2023/04/05 12:24:31;;;;;;;9.47;5.13;;;9.90;99.90;;;;;;5037826;28;20164;-82
2023/04/05 12:26:56;;;;;;;7.70;5.43;;;10.00;99.90;;;;;;5037238;28;20172;-82
2023/04/05 12:29:22;;;;;;;7.77;5.00;;;10.00;99.90;;;;;;5036545;28;20180;-82
2023/04/05 12:31:49;;;;;;;8.97;5.17;;;10.00;99.90;;;;;;5035315;28;20227;-82
2023/04/05 12:34:23;;;;;;;7.33;4.90;;;10.10;99.90;;;;;;5037530;28;20625;-80
2023/04/05 12:36:48;;;;;;;10.20;5.20;;;10.10;99.90;;;;;;5047349;28;20662;-80
2023/04/05 12:39:16;;;;;;;9.37;5.67;;;10.20;99.90;;;;;;5055414;28;20266;-83
2023/04/05 12:41:42;;;;;;;10.07;5.00;;;10.30;99.90;;;;;;5055254;28;20282;-82
2023/04/05 12:44:29;;;;;;;8.97;5.73;;;10.30;99.90;;;;;;5056449;28;20660;-83
2023/04/05 12:47:04;;;;;;;11.77;5.30;;;10.50;99.90;;;;;;5056454;28;20199;-83
2023/04/05 12:49:35;;;;;;;9.60;5.33;;;10.50;99.90;;;;;;5055269;28;20173;-82
2023/04/05 12:52:01;;;;;;;9.33;5.73;;;10.50;99.90;;;;;;5056395;28;20245;-82
2023/04/05 12:54:27;;;;;;;9.43;5.10;;;10.50;99.90;;;;;;5056911;28;20171;-82
2023/04/05 12:56:53;;;;;;;8.00;5.27;;;10.50;99.90;;;;;;5057219;28;20175;-82
2023/04/05 12:59:19;;;;;;;9.67;5.50;;;10.40;99.90;;;;;;5058007;28;20208;-82